sensor_id;sensor_type;location;lat;lon;timestamp;P1;durP1;ratioP1;P2;durP2;ratioP2
12334;SDS011;6233;51.560;9.986;2023-06-14T00:01:21;3.00;;;2.80;;
12334;SDS011;6233;51.560;9.986;2023-06-14T00:04:23;6.33;;;3.00;;
12334;SDS011;6233;51.560;9.986;2023-06-14T00:07:33;6.50;;;2.70;;
12334;SDS011;6233;51.560;9.986;2023-06-14T00:10:39;3.20;;;2.90;;
12334;SDS011;6233;51.560;9.986;2023-06-14T00:13:43;4.13;;;2.97;;
12334;SDS011;6233;51.560;9.986;2023-06-14T00:16:45;3.30;;;2.90;;
12334;SDS011;6233;51.560;9.986;2023-06-14T00:19:46;5.03;;;2.90;;
12334;SDS011;6233;51.560;9.986;2023-06-14T00:22:48;3.47;;;3.13;;
12334;SDS011;6233;51.560;9.986;2023-06-14T00:25:50;3.33;;;3.00;;
12334;SDS011;6233;51.560;9.986;2023-06-14T00:28:52;5.00;;;2.83;;
12334;SDS011;6233;51.560;9.986;2023-06-14T00:31:55;4.10;;;2.77;;
12334;SDS011;6233;51.560;9.986;2023-06-14T00:34:57;5.23;;;3.30;;
12334;SDS011;6233;51.560;9.986;2023-06-14T00:37:58;4.47;;;3.07;;
12334;SDS011;6233;51.560;9.986;2023-06-14T00:41:00;3.20;;;2.70;;
12334;SDS011;6233;51.560;9.986;2023-06-14T00:44:02;5.70;;;2.70;;
12334;SDS011;6233;51.560;9.986;2023-06-14T00:47:04;3.67;;;2.80;;
12334;SDS011;6233;51.560;9.986;2023-06-14T00:50:06;4.43;;;3.10;;
12334;SDS011;6233;51.560;9.986;2023-06-14T00:53:08;5.23;;;3.23;;
12334;SDS011;6233;51.560;9.986;2023-06-14T00:56:27;4.37;;;3.10;;
12334;SDS011;6233;51.560;9.986;2023-06-14T00:59:29;3.10;;;2.80;;
12334;SDS011;6233;51.560;9.986;2023-06-14T01:02:31;3.53;;;3.10;;
12334;SDS011;6233;51.560;9.986;2023-06-14T01:05:33;3.37;;;3.00;;
12334;SDS011;6233;51.560;9.986;2023-06-14T01:08:39;3.97;;;2.80;;
12334;SDS011;6233;51.560;9.986;2023-06-14T01:12:00;3.37;;;2.90;;
12334;SDS011;6233;51.560;9.986;2023-06-14T01:15:12;3.57;;;2.70;;
12334;SDS011;6233;51.560;9.986;2023-06-14T01:18:15;6.73;;;2.80;;
12334;SDS011;6233;51.560;9.986;2023-06-14T01:21:22;2.97;;;2.70;;
12334;SDS011;6233;51.560;9.986;2023-06-14T01:24:25;4.40;;;3.10;;
12334;SDS011;6233;51.560;9.986;2023-06-14T01:27:30;3.13;;;2.80;;
12334;SDS011;6233;51.560;9.986;2023-06-14T01:30:33;7.10;;;3.17;;
12334;SDS011;6233;51.560;9.986;2023-06-14T01:33:35;4.10;;;3.07;;
12334;SDS011;6233;51.560;9.986;2023-06-14T01:36:38;4.43;;;3.10;;
12334;SDS011;6233;51.560;9.986;2023-06-14T01:39:43;5.07;;;2.70;;
12334;SDS011;6233;51.560;9.986;2023-06-14T01:42:46;3.23;;;2.83;;
12334;SDS011;6233;51.560;9.986;2023-06-14T01:45:50;3.87;;;2.80;;
12334;SDS011;6233;51.560;9.986;2023-06-14T01:48:52;3.10;;;2.80;;
12334;SDS011;6233;51.560;9.986;2023-06-14T01:51:54;4.13;;;2.60;;
12334;SDS011;6233;51.560;9.986;2023-06-14T01:54:56;5.87;;;2.83;;
12334;SDS011;6233;51.560;9.986;2023-06-14T01:57:59;4.43;;;2.73;;
12334;SDS011;6233;51.560;9.986;2023-06-14T02:01:00;3.63;;;2.80;;
12334;SDS011;6233;51.560;9.986;2023-06-14T02:04:03;5.13;;;3.10;;
12334;SDS011;6233;51.560;9.986;2023-06-14T02:07:05;3.30;;;3.00;;
12334;SDS011;6233;51.560;9.986;2023-06-14T02:10:07;4.03;;;2.73;;
12334;SDS011;6233;51.560;9.986;2023-06-14T02:13:08;4.07;;;3.03;;
12334;SDS011;6233;51.560;9.986;2023-06-14T02:16:10;5.20;;;3.10;;
12334;SDS011;6233;51.560;9.986;2023-06-14T02:19:12;3.80;;;2.80;;
12334;SDS011;6233;51.560;9.986;2023-06-14T02:22:14;2.90;;;2.70;;
12334;SDS011;6233;51.560;9.986;2023-06-14T02:25:16;4.13;;;3.30;;
12334;SDS011;6233;51.560;9.986;2023-06-14T02:28:18;3.43;;;2.70;;
12334;SDS011;6233;51.560;9.986;2023-06-14T02:31:20;3.27;;;2.80;;
12334;SDS011;6233;51.560;9.986;2023-06-14T02:34:22;3.07;;;2.80;;
12334;SDS011;6233;51.560;9.986;2023-06-14T02:37:23;3.17;;;2.80;;
12334;SDS011;6233;51.560;9.986;2023-06-14T02:40:25;3.80;;;2.80;;
12334;SDS011;6233;51.560;9.986;2023-06-14T02:43:28;3.17;;;2.87;;
12334;SDS011;6233;51.560;9.986;2023-06-14T02:46:30;3.73;;;2.87;;
12334;SDS011;6233;51.560;9.986;2023-06-14T02:49:32;4.10;;;2.70;;
12334;SDS011;6233;51.560;9.986;2023-06-14T02:52:34;4.70;;;3.00;;
12334;SDS011;6233;51.560;9.986;2023-06-14T02:55:35;3.37;;;2.80;;
12334;SDS011;6233;51.560;9.986;2023-06-14T02:58:41;3.93;;;3.00;;
12334;SDS011;6233;51.560;9.986;2023-06-14T03:01:42;3.43;;;2.60;;
12334;SDS011;6233;51.560;9.986;2023-06-14T03:04:44;2.80;;;2.60;;
12334;SDS011;6233;51.560;9.986;2023-06-14T03:07:48;3.00;;;2.80;;
12334;SDS011;6233;51.560;9.986;2023-06-14T03:10:51;2.83;;;2.63;;
12334;SDS011;6233;51.560;9.986;2023-06-14T03:13:54;6.23;;;4.33;;
12334;SDS011;6233;51.560;9.986;2023-06-14T03:16:56;3.90;;;3.20;;
12334;SDS011;6233;51.560;9.986;2023-06-14T03:19:59;3.33;;;3.03;;
12334;SDS011;6233;51.560;9.986;2023-06-14T03:23:01;3.30;;;3.00;;
12334;SDS011;6233;51.560;9.986;2023-06-14T03:26:04;2.90;;;2.70;;
12334;SDS011;6233;51.560;9.986;2023-06-14T03:29:06;4.93;;;4.43;;
12334;SDS011;6233;51.560;9.986;2023-06-14T03:32:08;3.43;;;3.13;;
12334;SDS011;6233;51.560;9.986;2023-06-14T03:35:10;5.30;;;3.20;;
12334;SDS011;6233;51.560;9.986;2023-06-14T03:38:18;5.43;;;3.23;;
12334;SDS011;6233;51.560;9.986;2023-06-14T03:41:19;4.23;;;3.00;;
12334;SDS011;6233;51.560;9.986;2023-06-14T03:44:21;3.40;;;3.10;;
12334;SDS011;6233;51.560;9.986;2023-06-14T03:47:23;4.53;;;2.90;;
12334;SDS011;6233;51.560;9.986;2023-06-14T03:50:25;3.93;;;3.17;;
12334;SDS011;6233;51.560;9.986;2023-06-14T03:53:28;3.00;;;2.70;;
12334;SDS011;6233;51.560;9.986;2023-06-14T03:56:30;6.57;;;3.27;;
12334;SDS011;6233;51.560;9.986;2023-06-14T03:59:32;4.63;;;3.10;;
12334;SDS011;6233;51.560;9.986;2023-06-14T04:02:34;2.90;;;2.70;;
12334;SDS011;6233;51.560;9.986;2023-06-14T04:09:20;3.50;;;3.20;;
12334;SDS011;6233;51.560;9.986;2023-06-14T04:12:22;3.67;;;2.80;;
12334;SDS011;6233;51.560;9.986;2023-06-14T04:15:24;3.17;;;2.77;;
12334;SDS011;6233;51.560;9.986;2023-06-14T04:18:26;3.10;;;2.73;;
12334;SDS011;6233;51.560;9.986;2023-06-14T04:21:27;4.53;;;2.93;;
12334;SDS011;6233;51.560;9.986;2023-06-14T04:24:30;5.00;;;3.60;;
12334;SDS011;6233;51.560;9.986;2023-06-14T04:27:33;3.90;;;3.30;;
12334;SDS011;6233;51.560;9.986;2023-06-14T04:30:37;8.30;;;6.47;;
12334;SDS011;6233;51.560;9.986;2023-06-14T04:33:42;2.63;;;2.43;;
12334;SDS011;6233;51.560;9.986;2023-06-14T04:36:48;3.30;;;2.57;;
12334;SDS011;6233;51.560;9.986;2023-06-14T04:39:55;2.87;;;2.67;;
12334;SDS011;6233;51.560;9.986;2023-06-14T04:42:57;5.80;;;2.90;;
12334;SDS011;6233;51.560;9.986;2023-06-14T04:46:00;3.43;;;2.87;;
12334;SDS011;6233;51.560;9.986;2023-06-14T04:49:02;6.00;;;4.80;;
12334;SDS011;6233;51.560;9.986;2023-06-14T04:52:04;3.57;;;2.90;;
12334;SDS011;6233;51.560;9.986;2023-06-14T04:55:06;3.50;;;3.20;;
12334;SDS011;6233;51.560;9.986;2023-06-14T04:58:08;4.73;;;3.47;;
12334;SDS011;6233;51.560;9.986;2023-06-14T05:01:13;3.20;;;2.90;;
12334;SDS011;6233;51.560;9.986;2023-06-14T05:04:16;6.83;;;4.30;;
12334;SDS011;6233;51.560;9.986;2023-06-14T05:07:18;3.47;;;3.10;;
12334;SDS011;6233;51.560;9.986;2023-06-14T05:10:21;4.97;;;2.63;;
12334;SDS011;6233;51.560;9.986;2023-06-14T05:13:23;3.27;;;2.97;;
12334;SDS011;6233;51.560;9.986;2023-06-14T05:16:25;3.53;;;2.83;;
12334;SDS011;6233;51.560;9.986;2023-06-14T05:19:30;5.13;;;3.00;;
12334;SDS011;6233;51.560;9.986;2023-06-14T05:22:32;4.73;;;3.00;;
12334;SDS011;6233;51.560;9.986;2023-06-14T05:25:34;3.37;;;3.00;;
12334;SDS011;6233;51.560;9.986;2023-06-14T05:28:35;4.13;;;2.83;;
12334;SDS011;6233;51.560;9.986;2023-06-14T05:31:37;3.27;;;2.80;;
12334;SDS011;6233;51.560;9.986;2023-06-14T05:34:40;3.73;;;3.00;;
12334;SDS011;6233;51.560;9.986;2023-06-14T05:37:41;5.27;;;3.40;;
12334;SDS011;6233;51.560;9.986;2023-06-14T05:40:43;3.60;;;3.30;;
12334;SDS011;6233;51.560;9.986;2023-06-14T05:43:46;5.10;;;3.40;;
12334;SDS011;6233;51.560;9.986;2023-06-14T05:46:48;4.27;;;3.27;;
12334;SDS011;6233;51.560;9.986;2023-06-14T05:49:49;4.23;;;3.80;;
12334;SDS011;6233;51.560;9.986;2023-06-14T05:52:52;3.90;;;3.50;;
12334;SDS011;6233;51.560;9.986;2023-06-14T05:55:55;3.60;;;3.30;;
12334;SDS011;6233;51.560;9.986;2023-06-14T05:58:56;5.73;;;3.30;;
12334;SDS011;6233;51.560;9.986;2023-06-14T06:01:58;5.20;;;3.50;;
12334;SDS011;6233;51.560;9.986;2023-06-14T06:05:00;4.37;;;3.40;;
12334;SDS011;6233;51.560;9.986;2023-06-14T06:08:02;4.10;;;3.20;;
12334;SDS011;6233;51.560;9.986;2023-06-14T06:11:04;3.53;;;3.10;;
12334;SDS011;6233;51.560;9.986;2023-06-14T06:14:06;3.03;;;2.80;;
12334;SDS011;6233;51.560;9.986;2023-06-14T06:17:08;3.37;;;3.07;;
12334;SDS011;6233;51.560;9.986;2023-06-14T06:20:10;3.70;;;3.40;;
12334;SDS011;6233;51.560;9.986;2023-06-14T06:23:13;4.00;;;3.60;;
12334;SDS011;6233;51.560;9.986;2023-06-14T06:26:14;4.63;;;4.07;;
12334;SDS011;6233;51.560;9.986;2023-06-14T06:29:16;4.37;;;3.43;;
12334;SDS011;6233;51.560;9.986;2023-06-14T06:32:18;5.00;;;3.20;;
12334;SDS011;6233;51.560;9.986;2023-06-14T06:35:20;3.37;;;3.00;;
12334;SDS011;6233;51.560;9.986;2023-06-14T06:38:22;4.07;;;3.77;;
12334;SDS011;6233;51.560;9.986;2023-06-14T06:41:23;4.70;;;3.80;;
12334;SDS011;6233;51.560;9.986;2023-06-14T06:44:25;3.50;;;3.20;;
12334;SDS011;6233;51.560;9.986;2023-06-14T06:47:27;5.13;;;3.73;;
12334;SDS011;6233;51.560;9.986;2023-06-14T06:50:29;3.70;;;3.40;;
12334;SDS011;6233;51.560;9.986;2023-06-14T06:53:31;5.20;;;3.90;;
12334;SDS011;6233;51.560;9.986;2023-06-14T06:56:44;5.03;;;3.90;;
12334;SDS011;6233;51.560;9.986;2023-06-14T06:59:46;4.23;;;3.83;;
12334;SDS011;6233;51.560;9.986;2023-06-14T07:02:47;3.93;;;3.50;;
12334;SDS011;6233;51.560;9.986;2023-06-14T07:05:49;4.47;;;4.07;;
12334;SDS011;6233;51.560;9.986;2023-06-14T07:08:51;3.70;;;3.30;;
12334;SDS011;6233;51.560;9.986;2023-06-14T07:11:53;3.90;;;3.60;;
12334;SDS011;6233;51.560;9.986;2023-06-14T07:14:55;4.40;;;3.30;;
12334;SDS011;6233;51.560;9.986;2023-06-14T07:17:58;4.00;;;3.60;;
12334;SDS011;6233;51.560;9.986;2023-06-14T07:21:01;4.00;;;3.60;;
12334;SDS011;6233;51.560;9.986;2023-06-14T07:24:03;5.27;;;3.90;;
12334;SDS011;6233;51.560;9.986;2023-06-14T07:27:07;3.87;;;3.57;;
12334;SDS011;6233;51.560;9.986;2023-06-14T07:30:09;5.93;;;3.83;;
12334;SDS011;6233;51.560;9.986;2023-06-14T07:33:12;3.37;;;3.07;;
12334;SDS011;6233;51.560;9.986;2023-06-14T07:36:14;4.07;;;3.67;;
12334;SDS011;6233;51.560;9.986;2023-06-14T07:39:16;5.00;;;3.70;;
12334;SDS011;6233;51.560;9.986;2023-06-14T07:42:18;3.57;;;3.27;;
12334;SDS011;6233;51.560;9.986;2023-06-14T07:45:20;5.23;;;3.40;;
12334;SDS011;6233;51.560;9.986;2023-06-14T07:48:22;4.27;;;3.73;;
12334;SDS011;6233;51.560;9.986;2023-06-14T07:51:25;4.30;;;3.10;;
12334;SDS011;6233;51.560;9.986;2023-06-14T07:54:27;5.70;;;3.37;;
12334;SDS011;6233;51.560;9.986;2023-06-14T07:57:31;4.40;;;4.00;;
12334;SDS011;6233;51.560;9.986;2023-06-14T08:00:32;3.97;;;3.57;;
12334;SDS011;6233;51.560;9.986;2023-06-14T08:03:50;4.33;;;3.77;;
12334;SDS011;6233;51.560;9.986;2023-06-14T08:06:52;3.70;;;3.40;;
12334;SDS011;6233;51.560;9.986;2023-06-14T08:09:54;3.30;;;3.00;;
12334;SDS011;6233;51.560;9.986;2023-06-14T08:12:56;4.10;;;3.30;;
12334;SDS011;6233;51.560;9.986;2023-06-14T08:15:58;3.43;;;3.17;;
12334;SDS011;6233;51.560;9.986;2023-06-14T08:19:01;3.40;;;3.00;;
12334;SDS011;6233;51.560;9.986;2023-06-14T08:22:03;3.73;;;3.43;;
12334;SDS011;6233;51.560;9.986;2023-06-14T08:25:05;3.53;;;3.23;;
12334;SDS011;6233;51.560;9.986;2023-06-14T08:28:13;3.60;;;3.07;;
12334;SDS011;6233;51.560;9.986;2023-06-14T08:31:14;4.07;;;3.57;;
12334;SDS011;6233;51.560;9.986;2023-06-14T08:34:17;4.53;;;3.40;;
12334;SDS011;6233;51.560;9.986;2023-06-14T08:37:18;3.40;;;3.10;;
12334;SDS011;6233;51.560;9.986;2023-06-14T08:40:22;3.97;;;3.23;;
12334;SDS011;6233;51.560;9.986;2023-06-14T08:43:25;4.37;;;3.17;;
12334;SDS011;6233;51.560;9.986;2023-06-14T08:46:27;3.10;;;2.90;;
12334;SDS011;6233;51.560;9.986;2023-06-14T08:49:30;3.93;;;3.23;;
12334;SDS011;6233;51.560;9.986;2023-06-14T08:52:33;3.73;;;3.00;;
12334;SDS011;6233;51.560;9.986;2023-06-14T08:55:42;6.17;;;2.97;;
12334;SDS011;6233;51.560;9.986;2023-06-14T08:58:44;4.37;;;3.10;;
12334;SDS011;6233;51.560;9.986;2023-06-14T09:01:49;3.23;;;2.93;;
12334;SDS011;6233;51.560;9.986;2023-06-14T09:05:12;3.60;;;3.03;;
12334;SDS011;6233;51.560;9.986;2023-06-14T09:08:14;3.07;;;2.77;;
12334;SDS011;6233;51.560;9.986;2023-06-14T09:11:18;3.53;;;2.80;;
12334;SDS011;6233;51.560;9.986;2023-06-14T09:14:21;3.33;;;2.90;;
12334;SDS011;6233;51.560;9.986;2023-06-14T09:17:24;4.43;;;2.80;;
12334;SDS011;6233;51.560;9.986;2023-06-14T09:20:26;3.40;;;2.70;;
12334;SDS011;6233;51.560;9.986;2023-06-14T09:23:33;3.37;;;2.60;;
12334;SDS011;6233;51.560;9.986;2023-06-14T09:26:37;2.70;;;2.50;;
12334;SDS011;6233;51.560;9.986;2023-06-14T09:29:40;4.30;;;3.27;;
12334;SDS011;6233;51.560;9.986;2023-06-14T09:32:42;5.27;;;2.70;;
12334;SDS011;6233;51.560;9.986;2023-06-14T09:35:50;2.80;;;2.60;;
12334;SDS011;6233;51.560;9.986;2023-06-14T09:38:57;3.50;;;3.20;;
12334;SDS011;6233;51.560;9.986;2023-06-14T09:41:59;3.20;;;2.90;;
12334;SDS011;6233;51.560;9.986;2023-06-14T09:45:01;3.93;;;3.00;;
12334;SDS011;6233;51.560;9.986;2023-06-14T09:48:04;3.30;;;2.60;;
12334;SDS011;6233;51.560;9.986;2023-06-14T09:51:12;3.17;;;2.87;;
12334;SDS011;6233;51.560;9.986;2023-06-14T09:54:16;3.83;;;2.70;;
12334;SDS011;6233;51.560;9.986;2023-06-14T09:57:23;4.50;;;2.63;;
12334;SDS011;6233;51.560;9.986;2023-06-14T10:00:27;2.80;;;2.60;;
12334;SDS011;6233;51.560;9.986;2023-06-14T10:03:32;3.20;;;2.90;;
12334;SDS011;6233;51.560;9.986;2023-06-14T10:06:55;4.63;;;2.80;;
12334;SDS011;6233;51.560;9.986;2023-06-14T10:09:57;4.73;;;3.13;;
12334;SDS011;6233;51.560;9.986;2023-06-14T10:12:59;3.93;;;3.13;;
12334;SDS011;6233;51.560;9.986;2023-06-14T10:19:29;3.10;;;2.87;;
12334;SDS011;6233;51.560;9.986;2023-06-14T10:23:22;3.67;;;3.33;;
12334;SDS011;6233;51.560;9.986;2023-06-14T10:26:19;4.10;;;3.70;;
12334;SDS011;6233;51.560;9.986;2023-06-14T10:29:24;3.67;;;3.37;;
12334;SDS011;6233;51.560;9.986;2023-06-14T10:32:27;6.53;;;3.30;;
12334;SDS011;6233;51.560;9.986;2023-06-14T10:35:30;3.13;;;2.83;;
12334;SDS011;6233;51.560;9.986;2023-06-14T10:38:31;3.50;;;3.20;;
12334;SDS011;6233;51.560;9.986;2023-06-14T10:41:35;5.27;;;3.00;;
12334;SDS011;6233;51.560;9.986;2023-06-14T10:44:51;3.80;;;3.00;;
12334;SDS011;6233;51.560;9.986;2023-06-14T10:47:57;3.50;;;3.13;;
12334;SDS011;6233;51.560;9.986;2023-06-14T10:51:01;3.20;;;2.90;;
12334;SDS011;6233;51.560;9.986;2023-06-14T10:54:03;4.00;;;3.30;;
12334;SDS011;6233;51.560;9.986;2023-06-14T10:57:12;3.27;;;2.97;;
12334;SDS011;6233;51.560;9.986;2023-06-14T11:00:14;3.57;;;3.20;;
12334;SDS011;6233;51.560;9.986;2023-06-14T11:06:59;3.87;;;3.27;;
12334;SDS011;6233;51.560;9.986;2023-06-14T11:10:21;4.53;;;2.93;;
12334;SDS011;6233;51.560;9.986;2023-06-14T11:13:41;3.63;;;2.77;;
12334;SDS011;6233;51.560;9.986;2023-06-14T11:16:47;2.80;;;2.60;;
12334;SDS011;6233;51.560;9.986;2023-06-14T11:19:50;3.47;;;2.83;;
12334;SDS011;6233;51.560;9.986;2023-06-14T11:22:52;2.83;;;2.40;;
12334;SDS011;6233;51.560;9.986;2023-06-14T11:25:54;2.97;;;2.67;;
12334;SDS011;6233;51.560;9.986;2023-06-14T11:29:00;2.63;;;2.43;;
12334;SDS011;6233;51.560;9.986;2023-06-14T11:32:02;3.17;;;2.60;;
12334;SDS011;6233;51.560;9.986;2023-06-14T11:35:07;2.83;;;2.53;;
12334;SDS011;6233;51.560;9.986;2023-06-14T11:38:10;2.93;;;2.70;;
12334;SDS011;6233;51.560;9.986;2023-06-14T11:41:12;2.67;;;2.40;;
12334;SDS011;6233;51.560;9.986;2023-06-14T11:44:14;4.83;;;2.50;;
12334;SDS011;6233;51.560;9.986;2023-06-14T11:47:16;3.00;;;2.67;;
12334;SDS011;6233;51.560;9.986;2023-06-14T11:50:17;3.07;;;2.47;;
12334;SDS011;6233;51.560;9.986;2023-06-14T11:53:19;2.53;;;2.33;;
12334;SDS011;6233;51.560;9.986;2023-06-14T11:56:21;2.53;;;2.33;;
12334;SDS011;6233;51.560;9.986;2023-06-14T11:59:23;2.57;;;2.33;;
12334;SDS011;6233;51.560;9.986;2023-06-14T12:02:28;2.60;;;2.40;;
12334;SDS011;6233;51.560;9.986;2023-06-14T12:05:33;3.23;;;2.90;;
12334;SDS011;6233;51.560;9.986;2023-06-14T12:08:36;2.87;;;2.27;;
12334;SDS011;6233;51.560;9.986;2023-06-14T12:11:41;3.33;;;2.60;;
12334;SDS011;6233;51.560;9.986;2023-06-14T12:14:43;2.70;;;2.10;;
12334;SDS011;6233;51.560;9.986;2023-06-14T12:17:45;3.17;;;2.40;;
12334;SDS011;6233;51.560;9.986;2023-06-14T12:20:49;2.53;;;2.33;;
12334;SDS011;6233;51.560;9.986;2023-06-14T12:23:51;2.53;;;2.33;;
12334;SDS011;6233;51.560;9.986;2023-06-14T12:26:54;2.27;;;1.93;;
12334;SDS011;6233;51.560;9.986;2023-06-14T12:29:58;3.37;;;2.10;;
12334;SDS011;6233;51.560;9.986;2023-06-14T12:33:01;5.30;;;2.60;;
12334;SDS011;6233;51.560;9.986;2023-06-14T12:36:08;3.20;;;2.30;;
12334;SDS011;6233;51.560;9.986;2023-06-14T12:39:11;2.60;;;2.40;;
12334;SDS011;6233;51.560;9.986;2023-06-14T12:42:13;3.17;;;2.73;;
12334;SDS011;6233;51.560;9.986;2023-06-14T12:45:16;2.60;;;2.40;;
12334;SDS011;6233;51.560;9.986;2023-06-14T12:48:18;2.70;;;2.20;;
12334;SDS011;6233;51.560;9.986;2023-06-14T12:51:20;2.43;;;2.10;;
12334;SDS011;6233;51.560;9.986;2023-06-14T12:54:22;2.10;;;2.00;;
12334;SDS011;6233;51.560;9.986;2023-06-14T12:57:40;2.40;;;2.20;;
12334;SDS011;6233;51.560;9.986;2023-06-14T13:00:42;2.80;;;2.50;;
12334;SDS011;6233;51.560;9.986;2023-06-14T13:03:45;2.63;;;2.30;;
12334;SDS011;6233;51.560;9.986;2023-06-14T13:06:51;2.50;;;2.30;;
12334;SDS011;6233;51.560;9.986;2023-06-14T13:09:53;2.33;;;2.13;;
12334;SDS011;6233;51.560;9.986;2023-06-14T13:12:55;2.67;;;2.47;;
12334;SDS011;6233;51.560;9.986;2023-06-14T13:15:59;3.90;;;2.00;;
12334;SDS011;6233;51.560;9.986;2023-06-14T13:19:01;2.37;;;2.17;;
12334;SDS011;6233;51.560;9.986;2023-06-14T13:22:03;2.77;;;1.97;;
12334;SDS011;6233;51.560;9.986;2023-06-14T13:28:55;3.07;;;2.00;;
12334;SDS011;6233;51.560;9.986;2023-06-14T13:31:57;2.20;;;2.00;;
12334;SDS011;6233;51.560;9.986;2023-06-14T13:34:59;2.40;;;2.20;;
12334;SDS011;6233;51.560;9.986;2023-06-14T13:38:01;2.60;;;2.30;;
12334;SDS011;6233;51.560;9.986;2023-06-14T13:44:40;2.90;;;2.30;;
12334;SDS011;6233;51.560;9.986;2023-06-14T13:47:42;2.80;;;2.30;;
12334;SDS011;6233;51.560;9.986;2023-06-14T13:50:44;2.30;;;2.10;;
12334;SDS011;6233;51.560;9.986;2023-06-14T13:56:54;2.80;;;1.70;;
12334;SDS011;6233;51.560;9.986;2023-06-14T13:59:56;2.20;;;2.00;;
12334;SDS011;6233;51.560;9.986;2023-06-14T14:03:02;2.20;;;2.03;;
12334;SDS011;6233;51.560;9.986;2023-06-14T14:06:04;2.27;;;2.13;;
12334;SDS011;6233;51.560;9.986;2023-06-14T14:09:08;3.10;;;2.40;;
12334;SDS011;6233;51.560;9.986;2023-06-14T14:12:10;2.30;;;2.10;;
12334;SDS011;6233;51.560;9.986;2023-06-14T14:15:12;2.60;;;2.40;;
12334;SDS011;6233;51.560;9.986;2023-06-14T14:18:16;2.30;;;2.10;;
12334;SDS011;6233;51.560;9.986;2023-06-14T14:21:18;2.23;;;2.03;;
12334;SDS011;6233;51.560;9.986;2023-06-14T14:24:20;2.47;;;2.27;;
12334;SDS011;6233;51.560;9.986;2023-06-14T14:27:22;2.33;;;2.13;;
12334;SDS011;6233;51.560;9.986;2023-06-14T14:30:24;3.40;;;2.60;;
12334;SDS011;6233;51.560;9.986;2023-06-14T14:33:26;4.17;;;2.40;;
12334;SDS011;6233;51.560;9.986;2023-06-14T14:36:27;2.77;;;2.53;;
12334;SDS011;6233;51.560;9.986;2023-06-14T14:39:29;2.67;;;2.00;;
12334;SDS011;6233;51.560;9.986;2023-06-14T14:42:31;2.20;;;2.00;;
12334;SDS011;6233;51.560;9.986;2023-06-14T14:45:33;3.37;;;2.17;;
12334;SDS011;6233;51.560;9.986;2023-06-14T14:48:35;2.53;;;2.33;;
12334;SDS011;6233;51.560;9.986;2023-06-14T14:51:37;2.20;;;2.10;;
12334;SDS011;6233;51.560;9.986;2023-06-14T14:54:39;2.93;;;2.53;;
12334;SDS011;6233;51.560;9.986;2023-06-14T14:57:41;2.83;;;2.63;;
12334;SDS011;6233;51.560;9.986;2023-06-14T15:00:46;3.33;;;2.40;;
12334;SDS011;6233;51.560;9.986;2023-06-14T15:03:49;2.70;;;2.50;;
12334;SDS011;6233;51.560;9.986;2023-06-14T15:07:00;3.17;;;2.87;;
12334;SDS011;6233;51.560;9.986;2023-06-14T15:10:02;2.97;;;2.47;;
12334;SDS011;6233;51.560;9.986;2023-06-14T15:13:12;4.00;;;2.80;;
12334;SDS011;6233;51.560;9.986;2023-06-14T15:16:14;2.83;;;2.60;;
12334;SDS011;6233;51.560;9.986;2023-06-14T15:19:17;3.43;;;2.60;;
12334;SDS011;6233;51.560;9.986;2023-06-14T15:22:19;3.20;;;2.90;;
12334;SDS011;6233;51.560;9.986;2023-06-14T15:25:21;5.60;;;2.83;;
12334;SDS011;6233;51.560;9.986;2023-06-14T15:28:23;3.70;;;2.80;;
12334;SDS011;6233;51.560;9.986;2023-06-14T15:31:29;3.30;;;2.83;;
12334;SDS011;6233;51.560;9.986;2023-06-14T15:34:32;3.57;;;3.00;;
12334;SDS011;6233;51.560;9.986;2023-06-14T15:37:34;4.60;;;2.87;;
12334;SDS011;6233;51.560;9.986;2023-06-14T15:40:35;3.23;;;2.90;;
12334;SDS011;6233;51.560;9.986;2023-06-14T15:43:37;6.93;;;3.33;;
12334;SDS011;6233;51.560;9.986;2023-06-14T15:46:39;4.10;;;3.17;;
12334;SDS011;6233;51.560;9.986;2023-06-14T15:49:41;4.53;;;2.80;;
12334;SDS011;6233;51.560;9.986;2023-06-14T15:52:42;3.40;;;3.10;;
12334;SDS011;6233;51.560;9.986;2023-06-14T15:55:44;2.80;;;2.60;;
12334;SDS011;6233;51.560;9.986;2023-06-14T15:58:46;5.70;;;3.00;;
12334;SDS011;6233;51.560;9.986;2023-06-14T16:01:52;4.97;;;3.57;;
12334;SDS011;6233;51.560;9.986;2023-06-14T16:04:54;4.40;;;3.40;;
12334;SDS011;6233;51.560;9.986;2023-06-14T16:07:56;3.83;;;3.43;;
12334;SDS011;6233;51.560;9.986;2023-06-14T16:10:58;3.80;;;3.20;;
12334;SDS011;6233;51.560;9.986;2023-06-14T16:13:59;3.40;;;3.10;;
12334;SDS011;6233;51.560;9.986;2023-06-14T16:17:01;5.70;;;3.27;;
12334;SDS011;6233;51.560;9.986;2023-06-14T16:20:04;5.73;;;3.23;;
12334;SDS011;6233;51.560;9.986;2023-06-14T16:23:23;5.23;;;3.20;;
12334;SDS011;6233;51.560;9.986;2023-06-14T16:26:25;3.73;;;3.43;;
12334;SDS011;6233;51.560;9.986;2023-06-14T16:29:26;4.47;;;3.27;;
12334;SDS011;6233;51.560;9.986;2023-06-14T16:32:28;4.97;;;3.47;;
12334;SDS011;6233;51.560;9.986;2023-06-14T16:35:30;3.53;;;3.23;;
12334;SDS011;6233;51.560;9.986;2023-06-14T16:38:32;4.80;;;3.63;;
12334;SDS011;6233;51.560;9.986;2023-06-14T16:41:34;5.10;;;3.20;;
12334;SDS011;6233;51.560;9.986;2023-06-14T16:44:36;3.30;;;3.00;;
12334;SDS011;6233;51.560;9.986;2023-06-14T16:47:54;6.00;;;3.17;;
12334;SDS011;6233;51.560;9.986;2023-06-14T16:50:55;4.57;;;3.47;;
12334;SDS011;6233;51.560;9.986;2023-06-14T16:53:57;4.67;;;3.20;;
12334;SDS011;6233;51.560;9.986;2023-06-14T16:56:59;9.27;;;3.40;;
12334;SDS011;6233;51.560;9.986;2023-06-14T17:00:01;3.93;;;3.30;;
12334;SDS011;6233;51.560;9.986;2023-06-14T17:03:03;3.50;;;3.20;;
12334;SDS011;6233;51.560;9.986;2023-06-14T17:06:09;3.93;;;3.23;;
12334;SDS011;6233;51.560;9.986;2023-06-14T17:09:11;4.93;;;3.50;;
12334;SDS011;6233;51.560;9.986;2023-06-14T17:12:14;7.03;;;3.50;;
12334;SDS011;6233;51.560;9.986;2023-06-14T17:15:16;4.10;;;3.40;;
12334;SDS011;6233;51.560;9.986;2023-06-14T17:18:18;5.23;;;3.40;;
12334;SDS011;6233;51.560;9.986;2023-06-14T17:21:20;5.27;;;3.50;;
12334;SDS011;6233;51.560;9.986;2023-06-14T17:24:21;4.07;;;3.40;;
12334;SDS011;6233;51.560;9.986;2023-06-14T17:27:27;3.73;;;3.13;;
12334;SDS011;6233;51.560;9.986;2023-06-14T17:30:29;4.17;;;3.10;;
12334;SDS011;6233;51.560;9.986;2023-06-14T17:33:31;4.93;;;3.63;;
12334;SDS011;6233;51.560;9.986;2023-06-14T17:36:33;3.47;;;3.10;;
12334;SDS011;6233;51.560;9.986;2023-06-14T17:39:34;4.00;;;3.60;;
12334;SDS011;6233;51.560;9.986;2023-06-14T17:42:37;5.57;;;3.30;;
12334;SDS011;6233;51.560;9.986;2023-06-14T17:45:39;4.10;;;3.67;;
12334;SDS011;6233;51.560;9.986;2023-06-14T17:48:41;5.07;;;3.40;;
12334;SDS011;6233;51.560;9.986;2023-06-14T17:51:42;4.50;;;3.37;;
12334;SDS011;6233;51.560;9.986;2023-06-14T17:54:44;3.57;;;3.27;;
12334;SDS011;6233;51.560;9.986;2023-06-14T17:57:46;3.50;;;3.20;;
12334;SDS011;6233;51.560;9.986;2023-06-14T18:00:48;4.77;;;3.20;;
12334;SDS011;6233;51.560;9.986;2023-06-14T18:03:50;8.47;;;3.17;;
12334;SDS011;6233;51.560;9.986;2023-06-14T18:06:52;6.13;;;3.27;;
12334;SDS011;6233;51.560;9.986;2023-06-14T18:13:20;4.97;;;3.17;;
12334;SDS011;6233;51.560;9.986;2023-06-14T18:16:21;3.73;;;3.33;;
12334;SDS011;6233;51.560;9.986;2023-06-14T18:19:23;3.83;;;3.40;;
12334;SDS011;6233;51.560;9.986;2023-06-14T18:22:29;5.57;;;3.37;;
12334;SDS011;6233;51.560;9.986;2023-06-14T18:25:31;4.23;;;3.00;;
12334;SDS011;6233;51.560;9.986;2023-06-14T18:28:33;7.40;;;3.40;;
12334;SDS011;6233;51.560;9.986;2023-06-14T18:31:36;4.93;;;3.10;;
12334;SDS011;6233;51.560;9.986;2023-06-14T18:34:38;5.13;;;3.40;;
12334;SDS011;6233;51.560;9.986;2023-06-14T18:37:41;5.77;;;3.77;;
12334;SDS011;6233;51.560;9.986;2023-06-14T18:40:43;5.67;;;3.53;;
12334;SDS011;6233;51.560;9.986;2023-06-14T18:43:45;6.73;;;3.70;;
12334;SDS011;6233;51.560;9.986;2023-06-14T18:46:47;5.07;;;3.50;;
12334;SDS011;6233;51.560;9.986;2023-06-14T18:49:49;5.53;;;3.30;;
12334;SDS011;6233;51.560;9.986;2023-06-14T18:56:06;3.93;;;3.50;;
12334;SDS011;6233;51.560;9.986;2023-06-14T18:59:08;4.13;;;3.73;;
12334;SDS011;6233;51.560;9.986;2023-06-14T19:02:10;5.50;;;3.40;;
12334;SDS011;6233;51.560;9.986;2023-06-14T19:05:11;6.53;;;3.70;;
12334;SDS011;6233;51.560;9.986;2023-06-14T19:11:39;5.90;;;3.97;;